createdAt,value
2018-09-01T00:02:18.611Z,12.90
2018-09-01T00:04:46.000Z,12.80
2018-09-01T00:07:13.486Z,12.90
2018-09-01T00:09:40.932Z,12.90
2018-09-01T00:12:08.387Z,12.90
2018-09-01T00:14:35.829Z,12.90
2018-09-01T00:17:03.873Z,12.90
2018-09-01T00:19:31.544Z,12.90
2018-09-01T00:21:58.974Z,12.90
2018-09-01T00:24:26.398Z,12.90
2018-09-01T00:26:54.859Z,12.80
2018-09-01T00:29:22.518Z,12.80
2018-09-01T00:31:49.963Z,12.80
2018-09-01T00:34:17.379Z,12.90
2018-09-01T00:36:44.816Z,12.90
2018-09-01T00:39:12.391Z,12.90
2018-09-01T00:41:39.835Z,12.90
2018-09-01T00:44:07.302Z,12.90
2018-09-01T00:46:34.758Z,12.90
2018-09-01T00:49:02.174Z,12.90
2018-09-01T00:51:29.626Z,12.90
2018-09-01T00:53:57.042Z,12.90
2018-09-01T00:56:24.512Z,12.90
2018-09-01T00:58:51.989Z,12.90
2018-09-01T01:01:19.409Z,12.90
2018-09-01T01:03:46.819Z,12.90
2018-09-01T01:06:14.308Z,12.90
2018-09-01T01:08:41.694Z,12.90
2018-09-01T01:11:09.206Z,12.90
2018-09-01T01:13:36.660Z,12.90
2018-09-01T01:16:04.132Z,13.00
2018-09-01T01:18:31.573Z,13.00
2018-09-01T01:20:58.977Z,12.90
2018-09-01T01:23:26.509Z,12.90
2018-09-01T01:25:53.969Z,12.90
2018-09-01T01:28:21.456Z,12.90
2018-09-01T01:30:48.951Z,12.90
2018-09-01T01:33:16.366Z,13.00
2018-09-01T01:35:43.909Z,13.00
2018-09-01T01:38:11.386Z,12.90
2018-09-01T01:40:38.899Z,12.90
2018-09-01T01:43:06.393Z,12.90
2018-09-01T01:45:33.884Z,12.90
2018-09-01T01:48:01.326Z,12.90
2018-09-01T01:50:28.747Z,13.00
2018-09-01T01:52:56.153Z,13.00
2018-09-01T01:55:23.565Z,13.00
2018-09-01T01:57:51.465Z,13.00
2018-09-01T02:00:19.011Z,13.00
2018-09-01T02:02:46.937Z,13.00
2018-09-01T02:05:17.343Z,13.00
2018-09-01T02:07:45.654Z,13.00
2018-09-01T02:10:13.372Z,12.90
2018-09-01T02:12:40.854Z,13.00
2018-09-01T02:15:08.307Z,13.00
2018-09-01T02:17:35.736Z,13.00
2018-09-01T02:20:03.481Z,13.00
2018-09-01T02:22:31.322Z,13.00
2018-09-01T02:24:58.809Z,13.00
2018-09-01T02:27:26.553Z,12.90
2018-09-01T02:29:53.933Z,13.00
2018-09-01T02:32:21.371Z,13.00
2018-09-01T02:34:48.755Z,13.00
2018-09-01T02:39:49.134Z,13.00
2018-09-01T02:42:16.607Z,13.00
2018-09-01T02:44:44.068Z,13.00
2018-09-01T02:47:11.541Z,13.00
2018-09-01T02:49:38.932Z,13.00
2018-09-01T02:52:06.362Z,13.00
2018-09-01T02:54:34.185Z,13.00
2018-09-01T02:57:02.215Z,13.00
2018-09-01T02:59:29.814Z,13.00
2018-09-01T03:01:57.259Z,13.00
2018-09-01T03:04:24.666Z,13.00
2018-09-01T03:06:57.150Z,13.00
2018-09-01T03:09:24.828Z,13.00
2018-09-01T03:11:53.222Z,13.00
2018-09-01T03:14:21.689Z,13.00
2018-09-01T03:16:49.338Z,13.00
2018-09-01T03:19:17.618Z,13.00
2018-09-01T03:21:45.798Z,12.90
2018-09-01T03:24:14.178Z,12.90
2018-09-01T03:26:44.965Z,13.00
2018-09-01T03:29:13.297Z,12.90
2018-09-01T03:31:40.952Z,13.00
2018-09-01T03:34:08.737Z,13.00
2018-09-01T03:36:36.854Z,13.00
2018-09-01T03:39:07.336Z,13.00
2018-09-01T03:41:35.211Z,13.00
2018-09-01T03:44:03.792Z,13.00
2018-09-01T03:46:31.270Z,13.00
2018-09-01T03:49:00.673Z,13.00
2018-09-01T03:51:28.871Z,12.90
2018-09-01T03:53:56.466Z,12.90
2018-09-01T03:56:24.299Z,12.90
2018-09-01T03:58:52.048Z,12.90
2018-09-01T04:01:19.766Z,12.90
2018-09-01T04:03:47.368Z,12.90
2018-09-01T04:06:14.850Z,12.90
2018-09-01T04:08:42.462Z,12.90
2018-09-01T04:11:09.912Z,12.90
2018-09-01T04:13:37.321Z,12.90
2018-09-01T04:16:04.800Z,13.00
2018-09-01T04:18:32.751Z,13.10
2018-09-01T04:21:00.260Z,13.00
2018-09-01T04:23:28.177Z,12.90
2018-09-01T04:25:55.801Z,12.90
2018-09-01T04:28:23.430Z,13.00
2018-09-01T04:30:51.102Z,13.00
2018-09-01T04:33:18.629Z,12.90
2018-09-01T04:35:46.132Z,12.90
2018-09-01T04:38:13.650Z,12.80
2018-09-01T04:40:41.404Z,12.90
2018-09-01T04:43:09.524Z,12.90
2018-09-01T04:45:37.535Z,12.90
2018-09-01T04:48:05.266Z,13.00
2018-09-01T04:50:33.349Z,13.00
2018-09-01T04:54:06.781Z,13.10
2018-09-01T04:56:34.496Z,13.10
2018-09-01T04:59:02.049Z,13.00
2018-09-01T05:01:29.595Z,12.90
2018-09-01T05:03:57.009Z,12.90
2018-09-01T05:06:24.430Z,12.90
2018-09-01T05:08:51.971Z,12.90
2018-09-01T05:11:19.379Z,12.90
2018-09-01T05:13:46.810Z,12.90
2018-09-01T05:16:14.297Z,12.90
2018-09-01T05:18:45.013Z,12.90
2018-09-01T05:21:12.477Z,13.00
2018-09-01T05:23:39.911Z,13.00
2018-09-01T05:26:07.398Z,13.00
2018-09-01T05:28:34.945Z,13.00
2018-09-01T05:31:02.911Z,13.10
2018-09-01T05:33:30.441Z,13.10
2018-09-01T05:35:57.859Z,13.10
2018-09-01T05:38:25.288Z,13.10
2018-09-01T05:40:52.745Z,13.10
2018-09-01T05:43:20.224Z,13.10
2018-09-01T05:45:47.639Z,13.20
2018-09-01T05:48:15.525Z,13.30
2018-09-01T05:50:43.185Z,13.30
2018-09-01T05:53:10.601Z,13.30
2018-09-01T05:55:38.092Z,13.30
2018-09-01T05:58:05.560Z,13.30
2018-09-01T06:00:35.760Z,13.20
2018-09-01T06:03:03.332Z,13.30
2018-09-01T06:05:30.841Z,13.30
2018-09-01T06:07:58.478Z,13.30
2018-09-01T06:10:26.067Z,13.30
2018-09-01T06:12:53.892Z,13.30
2018-09-01T06:15:21.398Z,13.30
2018-09-01T06:17:49.773Z,13.30
2018-09-01T06:20:17.515Z,13.30
2018-09-01T06:22:45.310Z,13.40
2018-09-01T06:25:12.964Z,13.40
2018-09-01T06:27:46.122Z,13.40
2018-09-01T06:30:16.371Z,13.40
2018-09-01T06:32:43.885Z,13.40
2018-09-01T06:35:11.508Z,13.40
2018-09-01T06:37:39.031Z,13.40
2018-09-01T06:40:06.936Z,13.50
2018-09-01T06:42:34.817Z,13.50
2018-09-01T06:45:03.415Z,13.50
2018-09-01T06:47:31.900Z,13.50
2018-09-01T06:50:00.261Z,13.60
2018-09-01T06:52:29.645Z,13.60
2018-09-01T06:56:01.804Z,13.60
2018-09-01T06:58:30.107Z,13.70
2018-09-01T07:00:58.837Z,13.80
2018-09-01T07:03:26.907Z,13.80
2018-09-01T07:06:14.717Z,13.80
2018-09-01T07:08:43.591Z,13.90
2018-09-01T07:11:12.741Z,13.90
2018-09-01T07:13:41.176Z,13.90
2018-09-01T07:16:10.070Z,14.00
2018-09-01T07:18:39.028Z,14.00
2018-09-01T07:21:08.718Z,14.00
2018-09-01T07:23:36.682Z,14.00
2018-09-01T07:26:04.280Z,14.10
2018-09-01T07:28:31.906Z,14.20
2018-09-01T07:30:59.941Z,14.20
2018-09-01T07:33:28.339Z,14.30
2018-09-01T07:35:56.219Z,14.40
2018-09-01T07:38:23.691Z,14.40
2018-09-01T07:40:51.285Z,14.40
2018-09-01T07:43:18.858Z,14.40
2018-09-01T07:45:51.257Z,14.40
2018-09-01T07:48:19.063Z,14.40
2018-09-01T07:51:05.029Z,14.50
2018-09-01T07:53:33.010Z,14.40
2018-09-01T07:56:01.650Z,14.50
2018-09-01T07:58:29.657Z,14.60
2018-09-01T08:00:57.386Z,14.50
2018-09-01T08:03:25.090Z,14.60
2018-09-01T08:05:52.654Z,14.60
2018-09-01T08:08:20.079Z,14.60
2018-09-01T08:10:48.905Z,14.70
2018-09-01T08:13:16.514Z,14.70
2018-09-01T08:15:44.962Z,14.80
2018-09-01T08:18:21.227Z,14.80
2018-09-01T08:20:50.087Z,14.80
2018-09-01T08:23:22.396Z,14.80
2018-09-01T08:25:52.916Z,14.70
2018-09-01T08:28:35.026Z,14.70
2018-09-01T08:31:02.861Z,14.70
2018-09-01T08:33:30.359Z,14.70
2018-09-01T08:35:58.325Z,14.70
2018-09-01T08:38:27.015Z,14.60
2018-09-01T08:40:56.012Z,14.60
2018-09-01T08:43:24.419Z,14.60
2018-09-01T08:45:52.821Z,14.50
2018-09-01T08:48:20.725Z,14.50
2018-09-01T08:50:48.623Z,14.40
2018-09-01T08:53:16.868Z,14.40
2018-09-01T08:55:45.349Z,14.40
2018-09-01T09:01:22.062Z,14.50
2018-09-01T09:03:53.105Z,14.50
2018-09-01T09:06:24.044Z,14.60
2018-09-01T09:08:53.632Z,14.60
2018-09-01T09:11:22.122Z,14.60
2018-09-01T09:13:50.426Z,14.70
2018-09-01T09:16:18.537Z,14.80
2018-09-01T09:18:46.523Z,14.80
2018-09-01T09:21:14.554Z,14.90
2018-09-01T09:23:41.989Z,15.00
2018-09-01T09:26:09.454Z,15.10
2018-09-01T09:28:36.836Z,15.30
2018-09-01T09:31:04.276Z,15.60
2018-09-01T09:33:31.757Z,15.90
2018-09-01T09:35:59.370Z,16.00
2018-09-01T09:38:26.789Z,16.10
2018-09-01T09:40:54.270Z,16.20
2018-09-01T09:43:21.659Z,16.30
2018-09-01T09:45:49.101Z,16.40
2018-09-01T09:48:16.534Z,16.60
2018-09-01T09:50:44.152Z,16.90
2018-09-01T09:53:11.585Z,17.00
2018-09-01T09:55:39.001Z,17.10
2018-09-01T09:58:06.431Z,17.00
2018-09-01T10:00:39.582Z,17.00
2018-09-01T10:03:07.089Z,17.00
2018-09-01T10:05:34.530Z,17.10
2018-09-01T10:08:02.069Z,17.20
2018-09-01T10:10:29.473Z,17.20
2018-09-01T10:12:56.953Z,17.20
2018-09-01T10:15:24.387Z,17.30
2018-09-01T10:17:51.789Z,17.40
2018-09-01T10:20:19.280Z,17.20
2018-09-01T10:22:46.657Z,17.20
2018-09-01T10:25:14.064Z,17.30
2018-09-01T10:27:41.564Z,17.40
2018-09-01T10:30:08.980Z,17.40
2018-09-01T10:32:36.356Z,17.80
2018-09-01T10:35:03.841Z,18.20
2018-09-01T10:37:31.452Z,18.80
2018-09-01T10:39:58.835Z,19.30
2018-09-01T10:42:26.244Z,19.60
2018-09-01T10:44:53.642Z,19.30
2018-09-01T10:47:21.035Z,18.80
2018-09-01T10:49:48.461Z,18.20
2018-09-01T10:52:15.917Z,17.90
2018-09-01T10:54:43.292Z,18.00
2018-09-01T10:57:10.731Z,18.10
2018-09-01T10:59:38.334Z,18.10
2018-09-01T11:02:05.731Z,18.10
2018-09-01T11:04:33.326Z,18.30
2018-09-01T11:07:00.700Z,18.20
2018-09-01T11:09:28.134Z,18.20
2018-09-01T11:11:55.738Z,18.20
2018-09-01T11:14:23.204Z,18.20
2018-09-01T11:16:50.732Z,18.30
2018-09-01T11:19:18.175Z,18.30
2018-09-01T11:21:45.765Z,18.20
2018-09-01T11:24:13.197Z,18.10
2018-09-01T11:26:40.633Z,18.10
2018-09-01T11:29:08.342Z,18.00
2018-09-01T11:31:35.843Z,18.10
2018-09-01T11:34:03.313Z,18.20
2018-09-01T11:36:30.700Z,18.50
2018-09-01T11:38:58.141Z,18.60
2018-09-01T11:41:25.602Z,18.60
2018-09-01T11:43:53.138Z,18.60
2018-09-01T11:46:20.593Z,18.40
2018-09-01T11:48:47.985Z,18.30
2018-09-01T11:51:15.596Z,18.30
2018-09-01T11:53:43.023Z,18.10
2018-09-01T11:56:10.442Z,18.20
2018-09-01T11:58:37.879Z,18.30
2018-09-01T12:01:05.491Z,18.50
2018-09-01T12:03:33.152Z,18.60
2018-09-01T12:06:01.162Z,18.50
2018-09-01T12:08:28.565Z,18.50
2018-09-01T12:10:55.995Z,18.60
2018-09-01T12:13:23.417Z,18.70
2018-09-01T12:15:50.921Z,18.80
2018-09-01T12:18:18.348Z,19.00
2018-09-01T12:20:45.752Z,19.20
2018-09-01T12:23:13.341Z,19.30
2018-09-01T12:25:40.814Z,19.30
2018-09-01T12:28:08.236Z,19.20
2018-09-01T12:30:35.644Z,19.10
2018-09-01T12:33:03.060Z,18.90
2018-09-01T12:35:30.576Z,18.70
2018-09-01T12:37:57.951Z,18.60
2018-09-01T12:40:25.340Z,18.50
2018-09-01T12:42:52.780Z,18.50
2018-09-01T12:45:20.178Z,18.70
2018-09-01T12:47:47.602Z,18.80
2018-09-01T12:50:15.026Z,18.90
2018-09-01T12:52:42.464Z,18.90
2018-09-01T12:55:09.877Z,19.00
2018-09-01T12:57:37.293Z,19.10
2018-09-01T13:00:04.938Z,19.30
2018-09-01T13:02:32.429Z,19.40
2018-09-01T13:04:59.868Z,19.60
2018-09-01T13:07:27.273Z,19.50
2018-09-01T13:09:54.734Z,19.50
2018-09-01T13:12:22.149Z,19.70
2018-09-01T13:14:49.580Z,19.70
2018-09-01T13:17:17.012Z,19.50
2018-09-01T13:19:44.477Z,19.50
2018-09-01T13:22:11.821Z,19.50
2018-09-01T13:24:39.287Z,19.30
2018-09-01T13:27:06.702Z,19.20
2018-09-01T13:29:34.092Z,19.30
2018-09-01T13:32:01.914Z,19.40
2018-09-01T13:34:29.466Z,19.50
2018-09-01T13:36:56.827Z,19.60
2018-09-01T13:39:24.238Z,19.60
2018-09-01T13:41:51.705Z,19.60
2018-09-01T13:44:19.166Z,19.70
2018-09-01T13:46:46.644Z,19.80
2018-09-01T13:49:14.082Z,19.50
2018-09-01T13:51:41.595Z,19.30
2018-09-01T13:54:09.012Z,19.20
2018-09-01T13:56:36.472Z,19.10
2018-09-01T13:59:04.153Z,19.00
2018-09-01T14:01:31.634Z,18.80
2018-09-01T14:03:59.023Z,19.00
2018-09-01T14:06:26.447Z,18.90
2018-09-01T14:08:53.909Z,18.80
2018-09-01T14:11:21.314Z,18.60
2018-09-01T14:13:48.725Z,18.50
2018-09-01T14:16:16.169Z,18.40
2018-09-01T14:18:43.581Z,18.50
2018-09-01T14:21:11.025Z,18.70
2018-09-01T14:23:38.444Z,18.80
2018-09-01T14:26:05.869Z,19.00
2018-09-01T14:28:33.280Z,19.10
2018-09-01T14:31:00.726Z,19.30
2018-09-01T14:33:28.173Z,19.30
2018-09-01T14:35:55.658Z,19.20
2018-09-01T14:38:23.121Z,19.20
2018-09-01T14:40:50.523Z,19.10
2018-09-01T14:43:17.959Z,19.00
2018-09-01T14:45:45.492Z,19.10
2018-09-01T14:48:13.037Z,19.10
2018-09-01T14:50:40.438Z,19.00
2018-09-01T14:53:07.857Z,18.90
2018-09-01T14:55:35.301Z,19.00
2018-09-01T14:58:02.744Z,19.10
2018-09-01T15:00:30.143Z,19.20
2018-09-01T15:02:57.526Z,19.20
2018-09-01T15:05:24.936Z,19.00
2018-09-01T15:07:52.359Z,18.80
2018-09-01T15:10:19.848Z,18.70
2018-09-01T15:12:47.300Z,18.50
2018-09-01T15:15:14.706Z,18.50
2018-09-01T15:17:42.093Z,18.40
2018-09-01T15:20:09.636Z,18.30
2018-09-01T15:22:37.014Z,18.40
2018-09-01T15:25:04.472Z,18.30
2018-09-01T15:27:31.894Z,18.30
2018-09-01T15:29:59.323Z,18.20
2018-09-01T15:32:26.736Z,18.20
2018-09-01T15:34:54.212Z,18.10
2018-09-01T15:37:21.636Z,18.10
2018-09-01T15:39:49.044Z,18.20
2018-09-01T15:42:16.465Z,18.30
2018-09-01T15:44:44.156Z,18.40
2018-09-01T15:47:11.813Z,18.40
2018-09-01T15:49:39.200Z,18.40
2018-09-01T15:52:06.597Z,18.70
2018-09-01T15:54:34.015Z,18.80
2018-09-01T15:57:01.449Z,18.70
2018-09-01T15:59:28.862Z,18.50
2018-09-01T16:01:56.264Z,18.50
2018-09-01T16:04:23.685Z,18.50
2018-09-01T16:06:51.132Z,18.40
2018-09-01T16:09:18.573Z,18.20
2018-09-01T16:11:45.992Z,18.10
2018-09-01T16:14:13.432Z,18.10
2018-09-01T16:16:40.813Z,18.10
2018-09-01T16:19:08.184Z,18.00
2018-09-01T16:21:35.636Z,17.90
2018-09-01T16:24:03.028Z,17.80
2018-09-01T16:26:30.493Z,17.80
2018-09-01T16:28:57.921Z,17.70
2018-09-01T16:31:25.321Z,17.70
2018-09-01T16:33:52.740Z,17.70
2018-09-01T16:36:20.173Z,17.60
2018-09-01T16:38:47.562Z,17.50
2018-09-01T16:41:15.029Z,17.50
2018-09-01T16:43:42.477Z,17.50
2018-09-01T16:46:09.861Z,17.50
2018-09-01T16:48:37.352Z,17.50
2018-09-01T16:51:04.830Z,17.50
2018-09-01T16:53:32.231Z,17.50
2018-09-01T16:55:59.693Z,17.40
2018-09-01T16:58:27.070Z,17.40
2018-09-01T17:00:54.573Z,17.40
2018-09-01T17:03:21.928Z,17.40
2018-09-01T17:05:49.365Z,17.30
2018-09-01T17:08:16.769Z,17.30
2018-09-01T17:10:44.205Z,17.20
2018-09-01T17:13:11.581Z,17.10
2018-09-01T17:15:39.057Z,17.00
2018-09-01T17:18:06.488Z,17.00
2018-09-01T17:20:33.883Z,16.90
2018-09-01T17:23:01.328Z,17.10
2018-09-01T17:25:29.058Z,17.20
2018-09-01T17:27:56.507Z,17.10
2018-09-01T17:30:23.868Z,17.10
2018-09-01T17:32:51.328Z,16.80
2018-09-01T17:35:19.314Z,16.60
2018-09-01T17:37:46.712Z,16.40
2018-09-01T17:40:14.134Z,16.20
2018-09-01T17:42:41.606Z,16.10
2018-09-01T17:45:09.166Z,15.90
2018-09-01T17:47:36.593Z,15.80
2018-09-01T17:50:04.110Z,15.60
2018-09-01T17:52:31.512Z,15.40
2018-09-01T17:54:58.977Z,15.20
2018-09-01T17:57:26.525Z,15.00
2018-09-01T17:59:53.949Z,14.70
2018-09-01T18:02:21.487Z,14.50
2018-09-01T18:04:49.028Z,14.40
2018-09-01T18:07:16.465Z,14.20
2018-09-01T18:09:44.201Z,14.10
2018-09-01T18:12:11.660Z,14.00
2018-09-01T18:14:39.084Z,13.80
2018-09-01T18:17:06.583Z,13.60
2018-09-01T18:19:34.029Z,13.50
2018-09-01T18:22:01.442Z,13.50
2018-09-01T18:24:28.874Z,13.50
2018-09-01T18:26:56.314Z,13.40
2018-09-01T18:29:23.761Z,13.40
2018-09-01T18:31:51.174Z,13.40
2018-09-01T18:34:18.590Z,13.30
2018-09-01T18:36:45.998Z,13.30
2018-09-01T18:39:13.494Z,13.20
2018-09-01T18:41:40.929Z,13.10
2018-09-01T18:44:08.354Z,13.00
2018-09-01T18:46:35.789Z,12.90
2018-09-01T18:49:03.482Z,12.90
2018-09-01T18:51:31.382Z,12.80
2018-09-01T18:53:58.939Z,12.70
2018-09-01T18:56:26.354Z,12.70
2018-09-01T18:58:53.766Z,12.60
2018-09-01T19:01:21.212Z,12.40
2018-09-01T19:03:48.626Z,12.30
2018-09-01T19:06:16.087Z,12.20
2018-09-01T19:08:43.472Z,12.20
2018-09-01T19:11:10.921Z,12.10
2018-09-01T19:13:38.412Z,12.00
2018-09-01T19:16:06.098Z,12.00
2018-09-01T19:18:33.547Z,12.00
2018-09-01T19:21:00.911Z,11.90
2018-09-01T19:23:28.669Z,11.80
2018-09-01T19:25:56.130Z,11.70
2018-09-01T19:28:23.524Z,11.70
2018-09-01T19:30:50.938Z,11.70
2018-09-01T19:33:18.642Z,11.80
2018-09-01T19:35:46.054Z,11.80
2018-09-01T19:38:13.525Z,11.80
2018-09-01T19:40:41.207Z,11.70
2018-09-01T19:43:08.791Z,11.60
2018-09-01T19:45:36.356Z,11.40
2018-09-01T19:48:03.686Z,11.30
2018-09-01T19:50:31.249Z,11.20
2018-09-01T19:52:58.694Z,11.20
2018-09-01T19:55:26.070Z,11.10
2018-09-01T19:57:53.502Z,11.10
2018-09-01T20:00:20.916Z,11.00
2018-09-01T20:02:48.892Z,10.90
2018-09-01T20:05:16.428Z,10.90
2018-09-01T20:07:43.793Z,10.70
2018-09-01T20:10:11.205Z,10.60
2018-09-01T20:12:38.670Z,10.50
2018-09-01T20:15:06.150Z,10.70
2018-09-01T20:17:33.585Z,10.70
2018-09-01T20:20:01.024Z,10.60
2018-09-01T20:22:28.437Z,10.50
2018-09-01T20:24:55.837Z,10.50
2018-09-01T20:27:23.279Z,10.50
2018-09-01T20:29:50.685Z,10.40
2018-09-01T20:32:18.104Z,10.40
2018-09-01T20:34:46.144Z,10.30
2018-09-01T20:37:14.482Z,10.30
2018-09-01T20:39:42.224Z,10.30
2018-09-01T20:42:09.622Z,10.20
2018-09-01T20:44:37.044Z,10.20
2018-09-01T20:47:04.876Z,10.10
2018-09-01T20:49:32.364Z,10.00
2018-09-01T20:52:00.024Z,10.00
2018-09-01T20:54:27.313Z,9.90
2018-09-01T20:56:54.849Z,9.90
2018-09-01T20:59:22.303Z,9.90
2018-09-01T21:01:49.713Z,9.90
2018-09-01T21:04:17.182Z,9.90
2018-09-01T21:06:44.530Z,9.80
2018-09-01T21:09:11.983Z,9.80
2018-09-01T21:11:40.188Z,9.70
2018-09-01T21:14:07.551Z,9.70
2018-09-01T21:16:35.058Z,9.60
2018-09-01T21:19:02.605Z,9.60
2018-09-01T21:21:30.021Z,9.50
2018-09-01T21:23:57.401Z,9.50
2018-09-01T21:26:24.856Z,9.40
2018-09-01T21:28:52.297Z,9.30
2018-09-01T21:31:19.675Z,9.30
2018-09-01T21:33:47.085Z,9.20
2018-09-01T21:36:14.555Z,9.20
2018-09-01T21:38:41.941Z,9.10
2018-09-01T21:41:09.406Z,9.10
2018-09-01T21:43:36.849Z,9.00
2018-09-01T21:46:04.308Z,9.00
2018-09-01T21:48:31.737Z,9.00
2018-09-01T21:50:59.154Z,8.90
2018-09-01T21:53:26.553Z,8.80
2018-09-01T21:55:53.980Z,8.70
2018-09-01T21:58:21.431Z,8.60
2018-09-01T22:00:50.193Z,8.60
2018-09-01T22:03:18.328Z,8.50
2018-09-01T22:05:45.762Z,8.60
2018-09-01T22:08:13.245Z,8.60
2018-09-01T22:10:40.712Z,8.60
2018-09-01T22:13:08.220Z,8.50
2018-09-01T22:15:35.613Z,8.50
2018-09-01T22:18:02.990Z,8.50
2018-09-01T22:20:30.458Z,8.50
2018-09-01T22:22:57.830Z,8.50
2018-09-01T22:25:25.222Z,8.50
2018-09-01T22:27:52.653Z,8.50
2018-09-01T22:30:20.072Z,8.50
2018-09-01T22:32:47.761Z,8.50
2018-09-01T22:35:15.157Z,8.50
2018-09-01T22:37:42.608Z,8.50
2018-09-01T22:40:10.000Z,8.50
2018-09-01T22:42:37.413Z,8.50
2018-09-01T22:45:05.289Z,8.40
2018-09-01T22:47:34.064Z,8.40
2018-09-01T22:50:01.496Z,8.40
2018-09-01T22:52:28.966Z,8.30
2018-09-01T22:54:56.503Z,8.20
2018-09-01T22:57:23.965Z,8.20
2018-09-01T22:59:51.381Z,8.10
2018-09-01T23:02:18.769Z,8.10
2018-09-01T23:04:46.243Z,8.00
2018-09-01T23:07:13.733Z,7.90
2018-09-01T23:09:41.174Z,7.90
2018-09-01T23:12:08.564Z,7.90
2018-09-01T23:14:36.049Z,8.00
2018-09-01T23:17:03.545Z,8.20
2018-09-01T23:19:31.025Z,8.30
2018-09-01T23:21:58.439Z,8.20
2018-09-01T23:24:25.857Z,8.10
2018-09-01T23:26:53.400Z,8.00
2018-09-01T23:29:20.786Z,7.90
2018-09-01T23:31:48.232Z,7.80
2018-09-01T23:34:15.606Z,7.70
2018-09-01T23:36:43.036Z,7.70
2018-09-01T23:39:11.173Z,7.70
2018-09-01T23:41:38.661Z,7.70
2018-09-01T23:44:06.921Z,7.70
2018-09-01T23:46:34.594Z,7.70
2018-09-01T23:49:02.119Z,7.80
2018-09-01T23:51:29.520Z,7.80
2018-09-01T23:53:56.977Z,7.80
2018-09-01T23:56:24.371Z,7.70
2018-09-01T23:58:51.774Z,7.60
